Time;durP1;ratioP1;P1;durP2;ratioP2;P2;SDS_P1;SDS_P2;PMS_P1;PMS_P2;Temp;Humidity;BMP_temperature;BMP_pressure;BME280_temperature;BME280_humidity;BME280_pressure;Samples;Min_cycle;Max_cycle;Signal;HPM_P1;HPM_P2
2021/06/22 00:02:14;;;;;;;6.18;1.90;;;;;;;;;;5002906;28;20042;-62
2021/06/22 00:04:44;;;;;;;6.03;1.65;;;;;;;;;;4990608;28;20046;-62
2021/06/22 00:07:14;;;;;;;4.43;2.25;;;;;;;;;;5006513;28;20053;-63
2021/06/22 00:09:42;;;;;;;4.55;1.88;;;;;;;;;;5010520;28;20056;-62
2021/06/22 00:12:11;;;;;;;5.03;1.80;;;;;;;;;;5009072;28;20121;-62
2021/06/22 00:14:39;;;;;;;4.72;1.80;;;;;;;;;;5009992;28;20064;-62
2021/06/22 00:17:07;;;;;;;2.17;1.50;;;;;;;;;;5008677;28;20056;-62
2021/06/22 00:19:36;;;;;;;5.68;1.88;;;;;;;;;;5009647;28;20042;-62
2021/06/22 00:22:06;;;;;;;4.93;2.00;;;;;;;;;;5010490;28;20142;-62
2021/06/22 00:24:34;;;;;;;6.90;1.58;;;;;;;;;;5013734;28;20064;-62
2021/06/22 00:27:03;;;;;;;4.93;1.67;;;;;;;;;;5014262;28;20100;-62
2021/06/22 00:29:31;;;;;;;7.47;2.30;;;;;;;;;;5014506;28;20046;-62
2021/06/22 00:31:59;;;;;;;7.72;2.67;;;;;;;;;;5014663;28;20102;-63
2021/06/22 00:34:28;;;;;;;5.32;2.70;;;;;;;;;;5013257;28;20050;-63
2021/06/22 00:36:56;;;;;;;6.10;2.85;;;;;;;;;;5013421;28;20054;-62
2021/06/22 00:39:26;;;;;;;6.53;2.17;;;;;;;;;;5013815;28;20042;-62
2021/06/22 00:41:55;;;;;;;5.40;2.13;;;;;;;;;;5014615;28;20053;-62
2021/06/22 00:44:24;;;;;;;8.45;2.13;;;;;;;;;;5014293;28;20148;-62
2021/06/22 00:46:52;;;;;;;5.25;2.63;;;;;;;;;;5013091;28;20048;-62
2021/06/22 00:49:20;;;;;;;6.38;2.20;;;;;;;;;;5014265;28;20375;-62
2021/06/22 00:51:49;;;;;;;8.98;2.88;;;;;;;;;;5013876;28;20078;-62
2021/06/22 00:54:17;;;;;;;4.40;2.58;;;;;;;;;;5015314;28;20093;-62
2021/06/22 00:56:47;;;;;;;8.10;2.45;;;;;;;;;;5013734;28;20077;-62
2021/06/22 00:59:16;;;;;;;5.68;2.10;;;;;;;;;;5014107;28;20213;-63
2021/06/22 01:01:44;;;;;;;5.15;2.13;;;;;;;;;;5014552;28;20502;-63
2021/06/22 01:04:13;;;;;;;3.72;1.92;;;;;;;;;;5008153;28;20050;-63
2021/06/22 01:06:41;;;;;;;3.55;2.10;;;;;;;;;;5004305;28;20444;-63
2021/06/22 01:09:10;;;;;;;7.18;2.40;;;;;;;;;;5003625;28;20081;-63
2021/06/22 01:11:38;;;;;;;5.75;2.20;;;;;;;;;;4996463;28;20078;-63
2021/06/22 01:14:08;;;;;;;4.38;2.08;;;;;;;;;;5008304;28;20582;-62
2021/06/22 01:16:37;;;;;;;7.07;2.05;;;;;;;;;;5007258;28;20045;-62
2021/06/22 01:19:07;;;;;;;4.82;2.15;;;;;;;;;;5013042;28;20052;-62
2021/06/22 01:21:37;;;;;;;5.15;2.00;;;;;;;;;;5008364;28;20479;-62
2021/06/22 01:24:06;;;;;;;6.25;2.25;;;;;;;;;;5004302;28;20160;-62
2021/06/22 01:26:35;;;;;;;4.90;2.30;;;;;;;;;;5012351;28;20073;-62
2021/06/22 01:29:04;;;;;;;3.38;1.90;;;;;;;;;;5009033;28;20077;-62
2021/06/22 01:31:33;;;;;;;5.15;1.85;;;;;;;;;;5010324;28;20497;-62
2021/06/22 01:34:01;;;;;;;5.10;2.25;;;;;;;;;;5013190;28;20105;-62
2021/06/22 01:36:33;;;;;;;5.25;2.00;;;;;;;;;;5011881;28;20057;-62
2021/06/22 01:39:03;;;;;;;5.57;2.17;;;;;;;;;;5006123;28;20124;-63
2021/06/22 01:41:31;;;;;;;2.50;1.80;;;;;;;;;;5011583;28;20145;-63
2021/06/22 01:43:59;;;;;;;6.30;2.17;;;;;;;;;;5007007;28;20061;-63
2021/06/22 01:46:28;;;;;;;5.00;1.98;;;;;;;;;;5012691;28;20057;-63
2021/06/22 01:48:56;;;;;;;4.93;1.92;;;;;;;;;;5012970;28;20038;-63
2021/06/22 01:51:25;;;;;;;7.50;2.10;;;;;;;;;;5010102;28;20109;-63
2021/06/22 01:53:53;;;;;;;5.72;2.03;;;;;;;;;;5005884;28;20148;-63
2021/06/22 01:56:24;;;;;;;6.43;2.20;;;;;;;;;;5010421;28;20438;-63
2021/06/22 01:58:53;;;;;;;7.00;2.00;;;;;;;;;;5013063;28;20076;-63
2021/06/22 02:01:21;;;;;;;3.55;1.77;;;;;;;;;;5002327;28;20557;-63
2021/06/22 02:03:50;;;;;;;4.45;2.05;;;;;;;;;;5011320;28;20430;-63
2021/06/22 02:06:18;;;;;;;5.32;2.17;;;;;;;;;;5013615;28;20137;-63
2021/06/22 02:08:47;;;;;;;6.45;1.80;;;;;;;;;;5012926;28;20049;-63
2021/06/22 02:11:15;;;;;;;2.63;1.73;;;;;;;;;;5013301;28;20128;-63
2021/06/22 02:13:45;;;;;;;10.40;2.10;;;;;;;;;;5012910;28;20128;-63
2021/06/22 02:16:14;;;;;;;9.50;1.83;;;;;;;;;;5013162;28;20073;-63
2021/06/22 02:18:42;;;;;;;3.10;1.67;;;;;;;;;;5012179;28;20053;-63
2021/06/22 02:21:10;;;;;;;5.07;1.90;;;;;;;;;;5012572;28;20077;-63
2021/06/22 02:23:39;;;;;;;4.45;1.80;;;;;;;;;;5009645;28;20581;-63
2021/06/22 02:26:08;;;;;;;5.45;1.90;;;;;;;;;;5012326;28;20081;-63
2021/06/22 02:28:36;;;;;;;7.00;2.10;;;;;;;;;;5011837;28;20091;-63
2021/06/22 02:31:06;;;;;;;6.75;2.13;;;;;;;;;;5013140;28;20133;-63
2021/06/22 02:33:34;;;;;;;3.08;1.60;;;;;;;;;;5014295;28;20501;-63
2021/06/22 02:36:02;;;;;;;3.33;1.48;;;;;;;;;;5013825;28;20494;-63
2021/06/22 02:38:31;;;;;;;3.72;1.63;;;;;;;;;;5012678;28;20050;-63
2021/06/22 02:40:59;;;;;;;8.07;1.60;;;;;;;;;;5014293;28;20497;-63
2021/06/22 02:43:28;;;;;;;4.80;2.30;;;;;;;;;;5014453;28;20053;-63
2021/06/22 02:45:56;;;;;;;7.80;1.85;;;;;;;;;;5010356;28;20109;-63
2021/06/22 02:48:26;;;;;;;4.15;1.58;;;;;;;;;;5013249;28;20088;-63
2021/06/22 02:50:54;;;;;;;6.82;1.40;;;;;;;;;;5013152;28;20107;-63
2021/06/22 02:53:22;;;;;;;8.68;1.58;;;;;;;;;;5013477;28;20050;-63
2021/06/22 02:55:51;;;;;;;7.53;1.95;;;;;;;;;;5014883;28;20121;-63
2021/06/22 02:58:19;;;;;;;7.22;1.70;;;;;;;;;;5012260;28;20080;-63
2021/06/22 03:00:48;;;;;;;5.18;1.80;;;;;;;;;;4998886;28;20157;-63
2021/06/22 03:03:16;;;;;;;5.38;1.52;;;;;;;;;;5011055;28;20053;-63
2021/06/22 03:05:46;;;;;;;8.77;2.15;;;;;;;;;;5013733;28;20092;-63
2021/06/22 03:08:14;;;;;;;5.57;1.48;;;;;;;;;;5012877;28;20470;-63
2021/06/22 03:10:42;;;;;;;7.65;2.00;;;;;;;;;;5012991;28;20073;-63
2021/06/22 03:13:11;;;;;;;5.93;2.05;;;;;;;;;;5013476;28;20042;-63
2021/06/22 03:15:39;;;;;;;8.80;1.80;;;;;;;;;;5013124;28;20074;-62
2021/06/22 03:18:07;;;;;;;5.55;1.83;;;;;;;;;;5010712;28;20049;-63
2021/06/22 03:20:36;;;;;;;4.60;1.52;;;;;;;;;;5012950;28;20125;-62
2021/06/22 03:23:05;;;;;;;3.42;1.55;;;;;;;;;;5013425;28;20465;-62
2021/06/22 03:25:34;;;;;;;4.88;1.67;;;;;;;;;;5013606;28;20490;-62
2021/06/22 03:28:03;;;;;;;4.85;1.88;;;;;;;;;;5012115;28;20104;-62
2021/06/22 03:30:31;;;;;;;8.88;1.90;;;;;;;;;;5011724;28;20042;-62
2021/06/22 03:33:00;;;;;;;6.03;1.67;;;;;;;;;;5012710;28;20132;-63
2021/06/22 03:35:29;;;;;;;4.82;1.50;;;;;;;;;;5012412;28;20045;-63
2021/06/22 03:37:57;;;;;;;4.20;1.55;;;;;;;;;;5005575;28;20121;-63
2021/06/22 03:40:27;;;;;;;4.40;1.35;;;;;;;;;;5011385;28;20085;-63
2021/06/22 03:42:56;;;;;;;3.65;1.40;;;;;;;;;;5011330;28;20413;-62
2021/06/22 03:45:24;;;;;;;2.17;1.38;;;;;;;;;;5008429;28;20080;-62
2021/06/22 03:47:53;;;;;;;10.15;1.85;;;;;;;;;;5011589;28;20493;-63
2021/06/22 03:50:22;;;;;;;4.80;1.60;;;;;;;;;;5006069;28;20473;-63
2021/06/22 03:52:50;;;;;;;3.17;1.70;;;;;;;;;;5012495;28;20084;-63
2021/06/22 03:55:27;;;;;;;4.15;1.50;;;;;;;;;;5012695;28;20138;-63
2021/06/22 03:57:59;;;;;;;4.07;1.50;;;;;;;;;;5010199;28;20115;-63
2021/06/22 04:00:28;;;;;;;5.32;1.63;;;;;;;;;;5000647;28;20054;-63
2021/06/22 04:02:58;;;;;;;4.15;1.90;;;;;;;;;;5010893;28;20096;-63
2021/06/22 04:05:26;;;;;;;4.63;1.20;;;;;;;;;;5010464;28;20200;-63
2021/06/22 04:07:55;;;;;;;3.40;1.30;;;;;;;;;;5006834;28;20115;-63
2021/06/22 04:10:24;;;;;;;5.28;1.70;;;;;;;;;;5013985;28;20073;-63
2021/06/22 04:12:52;;;;;;;13.50;1.52;;;;;;;;;;5013352;28;20549;-63
2021/06/22 04:15:23;;;;;;;5.95;1.80;;;;;;;;;;5012210;28;20072;-63
2021/06/22 04:17:52;;;;;;;3.40;1.60;;;;;;;;;;5011414;28;20058;-63
2021/06/22 04:20:20;;;;;;;5.68;2.00;;;;;;;;;;5012522;28;20081;-63
2021/06/22 04:22:48;;;;;;;9.57;1.80;;;;;;;;;;5011936;28;20084;-63
2021/06/22 04:25:17;;;;;;;4.18;1.38;;;;;;;;;;5011944;28;20092;-63
2021/06/22 04:27:46;;;;;;;8.52;1.75;;;;;;;;;;5010382;28;20049;-63
2021/06/22 04:30:15;;;;;;;3.47;1.63;;;;;;;;;;5010922;28;20077;-63
2021/06/22 04:32:45;;;;;;;5.30;1.65;;;;;;;;;;5012479;28;20058;-63
2021/06/22 04:35:14;;;;;;;3.38;1.58;;;;;;;;;;5011306;28;20081;-64
2021/06/22 04:37:43;;;;;;;4.85;1.70;;;;;;;;;;5011339;28;20054;-63
2021/06/22 04:40:11;;;;;;;4.93;1.73;;;;;;;;;;5011425;28;20509;-63
2021/06/22 04:42:40;;;;;;;4.78;1.80;;;;;;;;;;5012312;28;20132;-63
2021/06/22 04:45:08;;;;;;;8.00;1.85;;;;;;;;;;5013735;28;20060;-64
2021/06/22 04:47:37;;;;;;;7.05;1.80;;;;;;;;;;5011380;28;20074;-64
2021/06/22 04:50:08;;;;;;;5.97;1.33;;;;;;;;;;5011322;28;20050;-64
2021/06/22 04:52:39;;;;;;;7.68;1.70;;;;;;;;;;5011438;28;20052;-64
2021/06/22 04:55:12;;;;;;;5.68;1.77;;;;;;;;;;5009651;28;20042;-64
2021/06/22 04:57:41;;;;;;;8.57;2.22;;;;;;;;;;5009448;28;20104;-62
2021/06/22 05:00:10;;;;;;;7.28;2.30;;;;;;;;;;5007621;28;20046;-63
2021/06/22 05:02:40;;;;;;;7.38;1.83;;;;;;;;;;5009838;28;20054;-63
2021/06/22 05:05:11;;;;;;;4.90;1.70;;;;;;;;;;5009256;28;20141;-63
2021/06/22 05:07:40;;;;;;;5.57;2.00;;;;;;;;;;5011841;28;20105;-63
2021/06/22 05:10:09;;;;;;;7.63;2.00;;;;;;;;;;5014593;28;20049;-63
2021/06/22 05:12:37;;;;;;;6.97;2.10;;;;;;;;;;5013779;28;20046;-63
2021/06/22 05:15:06;;;;;;;6.55;2.35;;;;;;;;;;5015128;28;20049;-63
2021/06/22 05:17:35;;;;;;;6.63;3.38;;;;;;;;;;5011369;28;20516;-63
2021/06/22 05:20:04;;;;;;;8.07;2.58;;;;;;;;;;5015464;28;20140;-63
2021/06/22 05:22:36;;;;;;;4.25;2.67;;;;;;;;;;5015450;28;20053;-63
2021/06/22 05:25:05;;;;;;;13.27;2.65;;;;;;;;;;5015042;28;20460;-63
2021/06/22 05:27:34;;;;;;;4.30;2.22;;;;;;;;;;5012922;28;20093;-63
2021/06/22 05:30:02;;;;;;;4.95;2.42;;;;;;;;;;5010508;28;20128;-63
2021/06/22 05:32:30;;;;;;;7.78;2.58;;;;;;;;;;5011768;28;20181;-63
2021/06/22 05:34:59;;;;;;;6.88;2.50;;;;;;;;;;5011898;28;20129;-63
2021/06/22 05:37:27;;;;;;;6.20;2.80;;;;;;;;;;5011134;28;20157;-63
2021/06/22 05:39:57;;;;;;;6.50;2.50;;;;;;;;;;5009975;28;20141;-63
2021/06/22 05:42:25;;;;;;;10.93;3.05;;;;;;;;;;5011462;28;20096;-63
2021/06/22 05:44:53;;;;;;;6.97;3.55;;;;;;;;;;5011329;28;20225;-63
2021/06/22 05:47:22;;;;;;;6.35;3.00;;;;;;;;;;5009890;28;20076;-63
2021/06/22 05:49:51;;;;;;;5.07;2.70;;;;;;;;;;5009231;28;20087;-64
2021/06/22 05:52:20;;;;;;;7.82;3.67;;;;;;;;;;5009481;28;20053;-62
2021/06/22 05:54:49;;;;;;;6.90;3.10;;;;;;;;;;5010471;28;20119;-62
2021/06/22 05:57:19;;;;;;;11.10;3.40;;;;;;;;;;5007607;28;20081;-62
2021/06/22 05:59:47;;;;;;;3.85;2.55;;;;;;;;;;5007359;28;20097;-63
2021/06/22 06:02:15;;;;;;;15.20;4.82;;;;;;;;;;5007393;28;20069;-62
2021/06/22 06:04:44;;;;;;;10.43;4.45;;;;;;;;;;5004278;28;20470;-63
2021/06/22 06:07:12;;;;;;;9.43;3.60;;;;;;;;;;5008875;28;20504;-63
2021/06/22 06:09:40;;;;;;;7.13;3.17;;;;;;;;;;5010924;28;20042;-63
2021/06/22 06:12:09;;;;;;;5.63;3.13;;;;;;;;;;5004956;28;20046;-63
2021/06/22 06:14:39;;;;;;;10.52;3.67;;;;;;;;;;5011138;28;20142;-63
2021/06/22 06:17:07;;;;;;;8.80;3.50;;;;;;;;;;5008941;28;20108;-63
2021/06/22 06:19:36;;;;;;;6.68;3.17;;;;;;;;;;5008184;28;20049;-63
2021/06/22 06:22:04;;;;;;;7.53;3.38;;;;;;;;;;5009793;28;20050;-63
2021/06/22 06:24:33;;;;;;;6.82;3.53;;;;;;;;;;5010057;28;20073;-63
2021/06/22 06:27:06;;;;;;;4.72;2.60;;;;;;;;;;5008967;28;20357;-63
2021/06/22 06:29:44;;;;;;;7.03;2.92;;;;;;;;;;5009626;28;20129;-63
2021/06/22 06:32:14;;;;;;;6.25;2.28;;;;;;;;;;5000530;28;20052;-63
2021/06/22 06:34:43;;;;;;;7.75;2.60;;;;;;;;;;5010521;28;20391;-63
2021/06/22 06:37:11;;;;;;;8.20;2.67;;;;;;;;;;5008802;28;20054;-63
2021/06/22 06:39:40;;;;;;;5.85;3.08;;;;;;;;;;5009851;28;20046;-64
2021/06/22 06:42:08;;;;;;;4.25;2.50;;;;;;;;;;5010123;28;20096;-63
2021/06/22 06:44:37;;;;;;;6.65;2.15;;;;;;;;;;5009489;28;20053;-63
2021/06/22 06:47:05;;;;;;;4.72;2.95;;;;;;;;;;5008844;28;20129;-63
2021/06/22 06:49:36;;;;;;;8.50;2.85;;;;;;;;;;5009176;28;20485;-63
2021/06/22 06:52:05;;;;;;;7.70;2.70;;;;;;;;;;5008569;28;20100;-64
2021/06/22 06:54:33;;;;;;;5.03;2.45;;;;;;;;;;5010122;28;20077;-63
2021/06/22 06:57:02;;;;;;;6.50;2.13;;;;;;;;;;5012283;28;20089;-63
2021/06/22 06:59:30;;;;;;;5.30;2.75;;;;;;;;;;5008414;28;20065;-64
2021/06/22 07:01:59;;;;;;;5.70;2.47;;;;;;;;;;4998839;28;20046;-63
2021/06/22 07:04:27;;;;;;;5.32;2.35;;;;;;;;;;5009972;28;20054;-63
2021/06/22 07:06:57;;;;;;;5.90;1.92;;;;;;;;;;5009910;28;20045;-63
2021/06/22 07:09:26;;;;;;;7.40;1.83;;;;;;;;;;4998452;28;20054;-63
2021/06/22 07:11:56;;;;;;;7.57;2.03;;;;;;;;;;5009993;28;20081;-64
2021/06/22 07:14:25;;;;;;;4.53;1.83;;;;;;;;;;5008550;28;20063;-63
2021/06/22 07:16:53;;;;;;;5.00;2.25;;;;;;;;;;5009499;28;20085;-63
2021/06/22 07:19:22;;;;;;;6.80;1.90;;;;;;;;;;5009410;28;20065;-64
2021/06/22 07:21:50;;;;;;;6.78;1.77;;;;;;;;;;5010244;28;20092;-64
2021/06/22 07:24:22;;;;;;;5.85;2.00;;;;;;;;;;5011307;28;20042;-63
2021/06/22 07:26:51;;;;;;;4.82;1.70;;;;;;;;;;5011000;28;20052;-63
2021/06/22 07:29:20;;;;;;;6.00;1.80;;;;;;;;;;5010199;28;20053;-64
2021/06/22 07:31:49;;;;;;;7.03;1.48;;;;;;;;;;5010756;28;20049;-63
2021/06/22 07:34:17;;;;;;;5.22;1.58;;;;;;;;;;5009503;28;20176;-63
2021/06/22 07:36:46;;;;;;;7.13;1.75;;;;;;;;;;5005009;28;20072;-63
2021/06/22 07:39:14;;;;;;;4.88;1.75;;;;;;;;;;5006675;28;20049;-64
2021/06/22 07:41:45;;;;;;;4.63;1.55;;;;;;;;;;5009873;28;20057;-63
2021/06/22 07:44:14;;;;;;;2.85;1.38;;;;;;;;;;5010525;28;20133;-63
2021/06/22 07:46:42;;;;;;;4.72;2.00;;;;;;;;;;5009183;28;20438;-64
2021/06/22 07:49:11;;;;;;;5.18;1.70;;;;;;;;;;5008974;28;20132;-64
2021/06/22 07:51:40;;;;;;;6.05;1.70;;;;;;;;;;5009233;28;20049;-64
2021/06/22 07:54:08;;;;;;;8.93;1.60;;;;;;;;;;5009760;28;20145;-64
2021/06/22 07:56:38;;;;;;;4.90;1.70;;;;;;;;;;5011357;28;20053;-64
2021/06/22 07:59:08;;;;;;;5.07;1.30;;;;;;;;;;5011183;28;20561;-64
2021/06/22 08:01:39;;;;;;;4.82;1.88;;;;;;;;;;5010330;28;20168;-65
2021/06/22 08:04:12;;;;;;;6.47;1.92;;;;;;;;;;4992099;28;20502;-64
2021/06/22 08:06:41;;;;;;;4.45;1.67;;;;;;;;;;4997956;28;20042;-64
2021/06/22 08:09:10;;;;;;;5.93;2.45;;;;;;;;;;4982340;28;20111;-65
2021/06/22 08:11:39;;;;;;;4.65;1.30;;;;;;;;;;4989034;28;20129;-65
2021/06/22 08:14:09;;;;;;;2.88;1.60;;;;;;;;;;4992313;28;20097;-64
2021/06/22 08:16:38;;;;;;;5.05;1.80;;;;;;;;;;4997594;28;20042;-64
2021/06/22 08:19:06;;;;;;;3.50;1.30;;;;;;;;;;5004109;28;20042;-64
2021/06/22 08:21:35;;;;;;;7.88;1.55;;;;;;;;;;5006416;28;20481;-64
2021/06/22 08:24:03;;;;;;;4.32;1.50;;;;;;;;;;5009973;28;20080;-65
2021/06/22 08:26:32;;;;;;;7.35;1.58;;;;;;;;;;5009184;28;20054;-64
2021/06/22 08:29:01;;;;;;;5.03;1.60;;;;;;;;;;5006945;28;20061;-64
2021/06/22 08:31:31;;;;;;;4.65;1.65;;;;;;;;;;4994053;28;20056;-64
2021/06/22 08:33:59;;;;;;;3.20;1.40;;;;;;;;;;5002615;28;20053;-64
2021/06/22 08:36:28;;;;;;;5.15;1.60;;;;;;;;;;5005899;28;20069;-64
2021/06/22 08:38:57;;;;;;;6.22;2.20;;;;;;;;;;5001294;28;20050;-64
2021/06/22 08:41:27;;;;;;;5.15;1.70;;;;;;;;;;5007470;28;20050;-64
2021/06/22 08:43:58;;;;;;;7.57;1.67;;;;;;;;;;5009451;28;20505;-64
2021/06/22 08:46:26;;;;;;;5.18;1.77;;;;;;;;;;5012180;28;20444;-64
2021/06/22 08:48:57;;;;;;;8.27;1.38;;;;;;;;;;5013358;28;20100;-63
2021/06/22 08:51:40;;;;;;;6.20;2.25;;;;;;;;;;5009872;28;20065;-64
2021/06/22 08:54:11;;;;;;;6.60;2.10;;;;;;;;;;5015112;28;20057;-64
2021/06/22 08:56:39;;;;;;;4.32;1.77;;;;;;;;;;5013868;28;20056;-65
2021/06/22 08:59:11;;;;;;;3.63;1.73;;;;;;;;;;5015955;28;20057;-64
2021/06/22 09:01:42;;;;;;;6.53;1.75;;;;;;;;;;5014533;28;20101;-64
2021/06/22 09:04:15;;;;;;;5.97;2.15;;;;;;;;;;5032403;28;20049;-64
2021/06/22 09:06:47;;;;;;;6.57;2.20;;;;;;;;;;5026844;28;20045;-64
2021/06/22 09:09:16;;;;;;;5.05;2.13;;;;;;;;;;5033032;28;20119;-64
2021/06/22 09:12:04;;;;;;;4.85;1.80;;;;;;;;;;5033226;28;20090;-64
2021/06/22 09:14:37;;;;;;;4.78;1.60;;;;;;;;;;5027779;28;20120;-64
2021/06/22 09:17:06;;;;;;;3.40;2.00;;;;;;;;;;5021750;28;20097;-64
2021/06/22 09:19:37;;;;;;;5.82;2.17;;;;;;;;;;5013248;28;20045;-64
2021/06/22 09:22:15;;;;;;;4.72;1.80;;;;;;;;;;5013801;28;20077;-64
2021/06/22 09:25:01;;;;;;;4.00;1.58;;;;;;;;;;5013822;28;20133;-64
2021/06/22 09:27:49;;;;;;;4.03;1.75;;;;;;;;;;5012294;28;20053;-64
2021/06/22 09:30:18;;;;;;;4.22;1.50;;;;;;;;;;5012617;28;20149;-63
2021/06/22 09:32:47;;;;;;;5.13;2.03;;;;;;;;;;5011661;28;20046;-64
2021/06/22 09:35:22;;;;;;;4.15;1.90;;;;;;;;;;5013360;28;20275;-64
2021/06/22 09:37:50;;;;;;;;;;;;;;;;;;5013004;28;20061;-63
2021/06/22 09:40:26;;;;;;;7.53;1.88;;;;;;;;;;5013215;28;20142;-64
2021/06/22 09:42:56;;;;;;;3.78;1.70;;;;;;;;;;5011399;28;20430;-65
2021/06/22 09:45:28;;;;;;;4.63;1.52;;;;;;;;;;5003608;28;20054;-68
2021/06/22 09:47:59;;;;;;;4.95;1.67;;;;;;;;;;5009332;28;20081;-64
2021/06/22 09:50:48;;;;;;;3.15;1.60;;;;;;;;;;5004733;28;20398;-64
2021/06/22 09:53:35;;;;;;;2.20;1.45;;;;;;;;;;5025392;28;20154;-64
2021/06/22 09:56:05;;;;;;;6.65;1.80;;;;;;;;;;5016403;28;20041;-63
2021/06/22 09:58:42;;;;;;;5.05;1.50;;;;;;;;;;5001599;28;20505;-63
2021/06/22 10:01:26;;;;;;;4.45;2.15;;;;;;;;;;5016005;28;20256;-63
2021/06/22 10:03:56;;;;;;;4.00;1.58;;;;;;;;;;5025162;28;20061;-63
2021/06/22 10:06:40;;;;;;;;;;;;;;;;;;5017821;28;20487;-63
2021/06/22 10:09:10;;;;;;;6.00;1.73;;;;;;;;;;5000670;28;19921;-65
2021/06/22 10:11:40;;;;;;;4.43;1.42;;;;;;;;;;5007734;28;20549;-64
2021/06/22 10:14:11;;;;;;;3.35;1.20;;;;;;;;;;5007318;28;20046;-63
2021/06/22 10:16:39;;;;;;;6.20;1.38;;;;;;;;;;5009401;28;20042;-63
2021/06/22 10:19:08;;;;;;;6.28;1.48;;;;;;;;;;5013734;28;20133;-63
2021/06/22 10:21:37;;;;;;;4.88;1.55;;;;;;;;;;5013864;28;20467;-63
2021/06/22 10:24:06;;;;;;;2.92;1.40;;;;;;;;;;5016166;28;20167;-63
2021/06/22 10:26:36;;;;;;;5.93;1.50;;;;;;;;;;5015067;28;20141;-63
2021/06/22 10:29:05;;;;;;;2.85;1.27;;;;;;;;;;5010980;28;20422;-63
2021/06/22 10:31:35;;;;;;;3.55;1.48;;;;;;;;;;5010990;28;20156;-63
2021/06/22 10:34:04;;;;;;;3.60;1.52;;;;;;;;;;5010086;28;20100;-63
2021/06/22 10:36:35;;;;;;;7.68;1.63;;;;;;;;;;5010040;28;20116;-63
2021/06/22 10:39:06;;;;;;;3.05;1.70;;;;;;;;;;5011306;28;20053;-63
2021/06/22 10:41:39;;;;;;;3.05;1.98;;;;;;;;;;5011564;28;20080;-63
2021/06/22 10:44:09;;;;;;;3.92;1.70;;;;;;;;;;5010978;28;20129;-63
2021/06/22 10:46:40;;;;;;;5.15;1.70;;;;;;;;;;5010796;28;20457;-63
2021/06/22 10:49:19;;;;;;;3.38;1.33;;;;;;;;;;5011427;28;20050;-63
2021/06/22 10:51:48;;;;;;;3.88;1.45;;;;;;;;;;5011776;28;20065;-60
2021/06/22 10:54:35;;;;;;;2.95;1.30;;;;;;;;;;5013475;28;20099;-60
2021/06/22 10:57:05;;;;;;;5.53;1.30;;;;;;;;;;5010906;28;20533;-60
2021/06/22 10:59:37;;;;;;;7.40;1.70;;;;;;;;;;5011983;28;20161;-60
2021/06/22 11:02:07;;;;;;;7.57;1.80;;;;;;;;;;5006593;28;20061;-61
2021/06/22 11:05:08;;;;;;;2.70;1.10;;;;;;;;;;4986902;28;20046;-61
2021/06/22 11:07:36;;;;;;;3.33;1.50;;;;;;;;;;4980208;28;20257;-61
2021/06/22 11:10:12;;;;;;;5.13;1.45;;;;;;;;;;4987486;28;20064;-61
2021/06/22 11:12:54;;;;;;;4.20;1.17;;;;;;;;;;4986716;28;20553;-60
2021/06/22 11:15:23;;;;;;;2.47;1.30;;;;;;;;;;4987138;28;20064;-61
2021/06/22 11:17:59;;;;;;;3.35;1.50;;;;;;;;;;4997730;28;20659;-61
2021/06/22 11:20:31;;;;;;;4.43;1.63;;;;;;;;;;5007091;28;20097;-60
2021/06/22 11:23:01;;;;;;;1.60;1.00;;;;;;;;;;5008010;28;20123;-61
2021/06/22 11:25:49;;;;;;;4.05;1.50;;;;;;;;;;5003558;28;20061;-61
2021/06/22 11:28:19;;;;;;;2.45;1.20;;;;;;;;;;5003091;28;20107;-62
2021/06/22 11:30:49;;;;;;;3.28;1.42;;;;;;;;;;5006985;28;20092;-61
2021/06/22 11:33:36;;;;;;;4.35;1.80;;;;;;;;;;5007892;28;20053;-62
2021/06/22 11:36:35;;;;;;;5.63;1.42;;;;;;;;;;4998335;28;20057;-62
2021/06/22 11:39:15;;;;;;;3.03;1.20;;;;;;;;;;4968772;28;20065;-62
2021/06/22 11:42:05;;;;;;;2.50;1.40;;;;;;;;;;4999721;28;20057;-62
2021/06/22 11:44:36;;;;;;;1.70;1.33;;;;;;;;;;5003209;28;20261;-61
2021/06/22 11:47:06;;;;;;;4.07;1.45;;;;;;;;;;5003878;28;20522;-63
2021/06/22 11:49:41;;;;;;;4.55;1.48;;;;;;;;;;5006509;28;20528;-61
2021/06/22 11:52:11;;;;;;;3.53;1.77;;;;;;;;;;5007310;28;20417;-61
2021/06/22 11:55:00;;;;;;;5.13;2.30;;;;;;;;;;4999130;28;20057;-62
2021/06/22 11:57:31;;;;;;;3.40;1.95;;;;;;;;;;5005938;28;20073;-62
2021/06/22 12:00:06;;;;;;;2.33;1.98;;;;;;;;;;5010760;28;20068;-61
2021/06/22 12:02:35;;;;;;;15.13;4.20;;;;;;;;;;5007758;28;20066;-61
2021/06/22 12:05:10;;;;;;;17.90;3.83;;;;;;;;;;4987871;28;20157;-62
2021/06/22 12:07:47;;;;;;;7.28;2.83;;;;;;;;;;5004385;28;20045;-61
2021/06/22 12:10:16;;;;;;;7.70;2.08;;;;;;;;;;5005636;28;20072;-61
2021/06/22 12:12:45;;;;;;;4.20;2.05;;;;;;;;;;5004758;28;20103;-61
2021/06/22 12:15:16;;;;;;;6.85;2.10;;;;;;;;;;5003653;28;20053;-61
2021/06/22 12:17:51;;;;;;;3.60;1.90;;;;;;;;;;4997254;28;20147;-61
2021/06/22 12:20:23;;;;;;;6.53;2.15;;;;;;;;;;5000420;28;20179;-61
2021/06/22 12:22:53;;;;;;;4.35;2.08;;;;;;;;;;5009112;28;20046;-61
2021/06/22 12:25:25;;;;;;;3.55;2.00;;;;;;;;;;5008888;28;20104;-62
2021/06/22 12:27:56;;;;;;;4.38;2.20;;;;;;;;;;5007080;28;20078;-61
2021/06/22 12:30:35;;;;;;;2.70;1.63;;;;;;;;;;5008964;28;20283;-62
2021/06/22 12:33:10;;;;;;;4.30;1.50;;;;;;;;;;5007945;28;20092;-62
2021/06/22 12:35:40;;;;;;;5.72;1.67;;;;;;;;;;5007406;28;20120;-61
2021/06/22 12:38:10;;;;;;;2.88;1.70;;;;;;;;;;5004975;28;20058;-61
2021/06/22 12:40:58;;;;;;;3.40;1.76;;;;;;;;;;2594408;28;10003906;-62
2021/06/22 12:43:46;;;;;;;6.20;1.75;;;;;;;;;;3624747;28;10001398;-61
2021/06/22 12:46:16;;;;;;;4.40;1.83;;;;;;;;;;5004462;28;20454;-61
2021/06/22 12:48:45;;;;;;;5.47;1.50;;;;;;;;;;4998325;28;20149;-62
2021/06/22 12:51:14;;;;;;;3.13;1.20;;;;;;;;;;5004852;28;20065;-62
2021/06/22 12:53:45;;;;;;;5.10;1.73;;;;;;;;;;5005970;28;20115;-62
2021/06/22 12:56:15;;;;;;;10.45;2.80;;;;;;;;;;4997398;28;20168;-61
2021/06/22 12:58:51;;;;;;;13.10;3.80;;;;;;;;;;5002544;28;20157;-61
2021/06/22 13:01:34;;;;;;;13.88;3.67;;;;;;;;;;5003591;28;20112;-62
2021/06/22 13:04:05;;;;;;;5.00;1.52;;;;;;;;;;5007257;28;20092;-61
2021/06/22 13:06:35;;;;;;;6.88;1.50;;;;;;;;;;5003885;28;20046;-61
2021/06/22 13:09:06;;;;;;;3.15;1.40;;;;;;;;;;5004315;28;20077;-61
2021/06/22 13:11:35;;;;;;;2.35;1.10;;;;;;;;;;5006719;28;20509;-61
2021/06/22 13:14:11;;;;;;;4.03;1.17;;;;;;;;;;5009103;28;20108;-61
2021/06/22 13:16:41;;;;;;;4.05;1.30;;;;;;;;;;5005453;28;20294;-62
2021/06/22 13:19:10;;;;;;;4.00;1.35;;;;;;;;;;5007856;28;20053;-61
2021/06/22 13:21:43;;;;;;;3.83;1.30;;;;;;;;;;4988766;28;20105;-60
2021/06/22 13:24:43;;;;;;;2.90;1.52;;;;;;;;;;5007355;28;20137;-60
2021/06/22 13:27:12;;;;;;;3.75;1.20;;;;;;;;;;5006730;28;20080;-61
2021/06/22 13:29:54;;;;;;;4.63;1.30;;;;;;;;;;5007596;28;20054;-61
2021/06/22 13:32:31;;;;;;;4.65;1.30;;;;;;;;;;4996080;28;20056;-61
2021/06/22 13:35:01;;;;;;;6.07;1.30;;;;;;;;;;5011437;28;20394;-61
2021/06/22 13:37:31;;;;;;;7.32;1.80;;;;;;;;;;5009886;28;20045;-61
2021/06/22 13:40:01;;;;;;;5.75;1.70;;;;;;;;;;5006588;28;20065;-61
2021/06/22 13:42:31;;;;;;;5.35;1.63;;;;;;;;;;5012264;28;20552;-60
2021/06/22 13:45:10;;;;;;;3.85;1.55;;;;;;;;;;4999053;28;20195;-61
2021/06/22 13:47:42;;;;;;;3.95;1.38;;;;;;;;;;5011698;28;20058;-62
2021/06/22 13:50:15;;;;;;;7.72;1.83;;;;;;;;;;5011996;28;20398;-61
2021/06/22 13:52:46;;;;;;;6.05;2.00;;;;;;;;;;5012496;28;20044;-61
2021/06/22 13:55:30;;;;;;;4.10;1.50;;;;;;;;;;5011234;28;20426;-60
2021/06/22 13:58:00;;;;;;;3.53;1.52;;;;;;;;;;5007914;28;20157;-61
2021/06/22 14:00:29;;;;;;;6.30;1.50;;;;;;;;;;5010361;28;20671;-61
2021/06/22 14:02:58;;;;;;;4.70;1.83;;;;;;;;;;5009583;28;20394;-60
2021/06/22 14:05:28;;;;;;;3.80;1.80;;;;;;;;;;4998167;28;20081;-61
2021/06/22 14:07:57;;;;;;;6.72;2.20;;;;;;;;;;5004556;28;20057;-61
2021/06/22 14:10:25;;;;;;;5.63;2.42;;;;;;;;;;5009168;28;20643;-61
2021/06/22 14:12:55;;;;;;;7.68;2.30;;;;;;;;;;5002927;28;20045;-60
2021/06/22 14:15:24;;;;;;;8.68;2.42;;;;;;;;;;5010145;28;20080;-60
2021/06/22 14:17:54;;;;;;;5.90;2.33;;;;;;;;;;5009788;28;20054;-60
2021/06/22 14:20:25;;;;;;;8.32;2.90;;;;;;;;;;4991958;28;20473;-61
2021/06/22 14:22:54;;;;;;;5.15;2.83;;;;;;;;;;5006116;28;20489;-60
2021/06/22 14:25:23;;;;;;;7.03;2.78;;;;;;;;;;5011141;28;20052;-61
2021/06/22 14:27:53;;;;;;;4.85;2.35;;;;;;;;;;5009447;28;20061;-60
2021/06/22 14:30:22;;;;;;;9.45;2.67;;;;;;;;;;5009149;28;20041;-60
2021/06/22 14:32:52;;;;;;;6.63;2.80;;;;;;;;;;5001951;28;20413;-60
2021/06/22 14:35:21;;;;;;;11.20;2.70;;;;;;;;;;5011163;28;20103;-60
2021/06/22 14:37:53;;;;;;;7.85;2.63;;;;;;;;;;5009603;28;20077;-60
2021/06/22 14:40:22;;;;;;;6.10;2.25;;;;;;;;;;5008626;28;20096;-59
2021/06/22 14:42:51;;;;;;;5.20;2.33;;;;;;;;;;5008666;28;20068;-60
2021/06/22 14:45:22;;;;;;;5.78;2.03;;;;;;;;;;5007549;28;20061;-60
2021/06/22 14:47:52;;;;;;;3.70;2.20;;;;;;;;;;4992705;28;20046;-61
2021/06/22 14:50:21;;;;;;;6.80;2.45;;;;;;;;;;5008278;28;20042;-60
2021/06/22 14:52:51;;;;;;;4.65;1.95;;;;;;;;;;5010094;28;20405;-61
2021/06/22 14:55:34;;;;;;;6.38;1.98;;;;;;;;;;5008016;28;20054;-60
2021/06/22 14:58:05;;;;;;;6.90;2.45;;;;;;;;;;5008373;28;20050;-60
2021/06/22 15:00:50;;;;;;;3.50;2.03;;;;;;;;;;5000894;28;20052;-60
2021/06/22 15:03:19;;;;;;;6.90;2.22;;;;;;;;;;5009457;28;20304;-61
2021/06/22 15:05:48;;;;;;;3.30;2.08;;;;;;;;;;5010544;28;20077;-60